Observation data for Paducah on 05/26/2019      Previous  Date  Next       Current Mesonet Observations  Soil Data  Daily Summary Page  Observations in Plain Language
KPAD 260500Z 13011KT 23/20 A2994 RMK A01 T02250198  RH  090%=      5-min Rain = 0
KPAD 260505Z 13011KT 22/20 A2993 RMK A01 T02240198  RH  090%=      5-min Rain = 0
KPAD 260510Z 13012KT 22/20 A2993 RMK A01 T02230197  RH  090%=      5-min Rain = 0
KPAD 260515Z 13012KT 22/20 A2993 RMK A01 T02220197  RH  091%=      5-min Rain = 0
KPAD 260520Z 13011KT 22/20 A2993 RMK A01 T02220197  RH  091%=      5-min Rain = 0
KPAD 260525Z 13011KT 22/20 A2993 RMK A01 T02220197  RH  091%=      5-min Rain = 0
KPAD 260530Z 13012KT 22/20 A2993 RMK A01 T02220197  RH  091%=      5-min Rain = 0
KPAD 260535Z 14011KT 22/20 A2993 RMK A01 T02230197  RH  090%=      5-min Rain = 0
KPAD 260540Z 13011G17KT 22/20 A2993 RMK A01 T02230197  RH  090%=      5-min Rain = 0
KPAD 260545Z 13012KT 22/20 A2993 RMK A01 T02230197  RH  090%=      5-min Rain = 0
KPAD 260550Z 13012KT 22/20 A2993 RMK A01 T02220196  RH  090%=      5-min Rain = 0
KPAD 260555Z 13011KT 22/20 A2993 RMK A01 T02220196  RH  090%=      5-min Rain = 0
KPAD 260600Z 13012G17KT 22/20 A2993 RMK A01 T02220196  RH  090%=      5-min Rain = 0
KPAD 260605Z 13012KT 22/20 A2993 RMK A01 T02230196  RH  090%=      5-min Rain = 0
KPAD 260610Z 14011KT 22/20 A2993 RMK A01 T02220196  RH  090%=      5-min Rain = 0
KPAD 260615Z 14012KT 22/20 A2993 RMK A01 T02220196  RH  090%=      5-min Rain = 0
KPAD 260620Z 14011G16KT 22/20 A2993 RMK A01 T02210195  RH  090%=      5-min Rain = 0
KPAD 260625Z 14011KT 22/20 A2993 RMK A01 T02210195  RH  090%=      5-min Rain = 0
KPAD 260630Z 14012KT 22/20 A2993 RMK A01 T02210195  RH  091%=      5-min Rain = 0
KPAD 260635Z 14011G16KT 22/20 A2993 RMK A01 T02200195  RH  091%=      5-min Rain = 0
KPAD 260640Z 14011KT 22/20 A2993 RMK A01 T02200195  RH  091%=      5-min Rain = 0
KPAD 260645Z 14011KT 22/20 A2994 RMK A01 T02190195  RH  091%=      5-min Rain = 0
KPAD 260650Z 14011KT 22/19 A2994 RMK A01 T02180194  RH  091%=      5-min Rain = 0
KPAD 260655Z 14010KT 22/19 A2993 RMK A01 T02180194  RH  091%=      5-min Rain = 0
KPAD 260700Z 14011KT 22/19 A2993 RMK A01 T02170194  RH  092%=      5-min Rain = 0
KPAD 260705Z 14010KT 22/19 A2993 RMK A01 T02170194  RH  092%=      5-min Rain = 0
KPAD 260710Z 14010KT 22/19 A2993 RMK A01 T02160193  RH  092%=      5-min Rain = 0
KPAD 260715Z 14010KT 22/19 A2993 RMK A01 T02150193  RH  092%=      5-min Rain = 0
KPAD 260720Z 14009G14KT 21/19 A2993 RMK A01 T02140193  RH  093%=      5-min Rain = 0
KPAD 260725Z 14010KT 21/19 A2993 RMK A01 T02140193  RH  093%=      5-min Rain = 0
KPAD 260730Z 14011KT 21/19 A2993 RMK A01 T02130193  RH  093%=      5-min Rain = 0
KPAD 260735Z 14011KT 21/19 A2993 RMK A01 T02130193  RH  093%=      5-min Rain = 0
KPAD 260740Z 14011KT 21/19 A2993 RMK A01 T02130193  RH  093%=      5-min Rain = 0
KPAD 260745Z 14011KT 21/19 A2993 RMK A01 T02120192  RH  094%=      5-min Rain = 0
KPAD 260750Z 14011KT 21/19 A2993 RMK A01 T02120192  RH  094%=      5-min Rain = 0
KPAD 260755Z 14010G15KT 21/19 A2993 RMK A01 T02110192  RH  094%=      5-min Rain = 0
KPAD 260800Z 15011KT 21/19 A2993 RMK A01 T02110192  RH  094%=      5-min Rain = 0
KPAD 260805Z 15011KT 21/19 A2993 RMK A01 T02110192  RH  094%=      5-min Rain = 0
KPAD 260810Z 15011KT 21/19 A2993 RMK A01 T02100192  RH  094%=      5-min Rain = 0
KPAD 260815Z 15009KT 21/19 A2993 RMK A01 T02100191  RH  094%=      5-min Rain = 0
KPAD 260820Z 15010KT 21/19 A2993 RMK A01 T02090191  RH  094%=      5-min Rain = 0
KPAD 260825Z 15010G15KT 21/19 A2993 RMK A01 T02090191  RH  094%=      5-min Rain = 0
KPAD 260830Z 15011KT 21/19 A2993 RMK A01 T02090191  RH  094%=      5-min Rain = 0
KPAD 260835Z 15011KT 21/19 A2993 RMK A01 T02090191  RH  094%=      5-min Rain = 0
KPAD 260840Z 15011KT 21/19 A2993 RMK A01 T02090191  RH  094%=      5-min Rain = 0
KPAD 260845Z 15011KT 21/19 A2993 RMK A01 T02090190  RH  094%=      5-min Rain = 0
KPAD 260850Z 15011KT 21/19 A2993 RMK A01 T02080190  RH  094%=      5-min Rain = 0
KPAD 260855Z 16010KT 21/19 A2993 RMK A01 T02080190  RH  094%=      5-min Rain = 0
KPAD 260900Z 16010KT 21/19 A2993 RMK A01 T02070189  RH  094%=      5-min Rain = 0
KPAD 260905Z 16010KT 21/19 A2992 RMK A01 T02070189  RH  095%=      5-min Rain = 0
KPAD 260910Z 16009KT 21/19 A2992 RMK A01 T02070189  RH  095%=      5-min Rain = 0
KPAD 260915Z 16009KT 21/19 A2992 RMK A01 T02060188  RH  095%=      5-min Rain = 0
KPAD 260920Z 16009KT 21/19 A2992 RMK A01 T02060188  RH  095%=      5-min Rain = 0
KPAD 260925Z 16010KT 21/19 A2993 RMK A01 T02050188  RH  095%=      5-min Rain = 0
KPAD 260930Z 16010KT 21/19 A2993 RMK A01 T02050188  RH  095%=      5-min Rain = 0
KPAD 260935Z 16011KT 21/19 A2992 RMK A01 T02050188  RH  095%=      5-min Rain = 0
KPAD 260940Z 16011KT 21/19 A2992 RMK A01 T02050188  RH  095%=      5-min Rain = 0
KPAD 260945Z 17011KT 21/19 A2993 RMK A01 T02050188  RH  095%=      5-min Rain = 0
KPAD 260950Z 16011KT 21/19 A2993 RMK A01 T02050188  RH  095%=      5-min Rain = 0
KPAD 260955Z 16010KT 21/19 A2993 RMK A01 T02050187  RH  094%=      5-min Rain = 0
KPAD 261000Z 16011KT 21/19 A2993 RMK A01 T02050187  RH  095%=      5-min Rain = 0
KPAD 261005Z 16011KT 21/19 A2993 RMK A01 T02050187  RH  094%=      5-min Rain = 0
KPAD 261010Z 16011KT 20/19 A2993 RMK A01 T02040187  RH  095%=      5-min Rain = 0
KPAD 261015Z 16011KT 20/19 A2994 RMK A01 T02040186  RH  094%=      5-min Rain = 0
KPAD 261020Z 16011KT 20/19 A2994 RMK A01 T02040186  RH  095%=      5-min Rain = 0
KPAD 261025Z 16010KT 20/19 A2994 RMK A01 T02030186  RH  095%=      5-min Rain = 0
KPAD 261030Z 16010KT 20/19 A2994 RMK A01 T02030186  RH  095%=      5-min Rain = 0
KPAD 261035Z 16009KT 20/19 A2994 RMK A01 T02020185  RH  095%=      5-min Rain = 0
KPAD 261040Z 16009KT 20/19 A2995 RMK A01 T02020185  RH  095%=      5-min Rain = 0
KPAD 261045Z 16009KT 20/18 A2995 RMK A01 T02010184  RH  095%=      5-min Rain = 0
KPAD 261050Z 16009KT 20/18 A2995 RMK A01 T02010184  RH  095%=      5-min Rain = 0
KPAD 261055Z 16009KT 20/18 A2995 RMK A01 T02000184  RH  095%=      5-min Rain = 0
KPAD 261100Z 16008KT 20/18 A2995 RMK A01 T02000184  RH  095%=      5-min Rain = 0
KPAD 261105Z 16008KT 20/18 A2996 RMK A01 T02000184  RH  096%=      5-min Rain = 0
KPAD 261110Z 16007KT 20/19 A2996 RMK A01 T02000185  RH  096%=      5-min Rain = 0
KPAD 261115Z 16007KT 20/19 A2996 RMK A01 T02000185  RH  096%=      5-min Rain = 0
KPAD 261120Z 16007KT 20/19 A2996 RMK A01 T02010185  RH  096%=      5-min Rain = 0
KPAD 261125Z 15007KT 20/19 A2996 RMK A01 T02000185  RH  096%=      5-min Rain = 0
KPAD 261130Z 15008KT 20/18 A2996 RMK A01 T02000184  RH  096%=      5-min Rain = 0
KPAD 261135Z 15007KT 20/18 A2996 RMK A01 T01990184  RH  096%=      5-min Rain = 0
KPAD 261140Z 15008KT 20/18 A2996 RMK A01 T01990184  RH  096%=      5-min Rain = 0
KPAD 261145Z 15009KT 20/18 A2996 RMK A01 T02000184  RH  096%=      5-min Rain = 0
KPAD 261150Z 15009KT 20/19 A2997 RMK A01 T02000185  RH  096%=      5-min Rain = 0
KPAD 261155Z 15009KT 20/19 A2997 RMK A01 T02000185  RH  096%=      5-min Rain = 0
KPAD 261200Z 15010KT 20/19 A2997 RMK A01 T02000185  RH  096%=      5-min Rain = 0
KPAD 261205Z 15009KT 20/19 A2997 RMK A01 T02000185  RH  096%=      5-min Rain = 0
KPAD 261210Z 15010KT 20/19 A2998 RMK A01 T02010185  RH  096%=      5-min Rain = 0
KPAD 261215Z 15010KT 20/19 A2998 RMK A01 T02010186  RH  096%=      5-min Rain = 0
KPAD 261220Z 15009KT 20/19 A2998 RMK A01 T02020186  RH  096%=      5-min Rain = 0
KPAD 261225Z 16010KT 20/19 A2999 RMK A01 T02020186  RH  096%=      5-min Rain = 0
KPAD 261230Z 16009KT 20/19 A2999 RMK A01 T02030186  RH  095%=      5-min Rain = 0
KPAD 261235Z 16009KT 20/19 A30 RMK A01 T02030186  RH  095%=      5-min Rain = 0
KPAD 261240Z 15010KT 20/19 A30 RMK A01 T02030186  RH  095%=      5-min Rain = 0
KPAD 261245Z 16010KT 20/19 A30 RMK A01 T02030186  RH  095%=      5-min Rain = 0
KPAD 261250Z 16010KT 20/19 A30 RMK A01 T02030186  RH  095%=      5-min Rain = 0
KPAD 261255Z 15010G15KT 20/19 A30 RMK A01 T02040186  RH  095%=      5-min Rain = 0
KPAD 261300Z 16012KT 20/19 A30 RMK A01 T02030186  RH  094%=      5-min Rain = 0
KPAD 261305Z 16010G15KT 20/19 A30 RMK A01 T02040186  RH  094%=      5-min Rain = 0
KPAD 261310Z 15011KT 20/19 A3001 RMK A01 T02040185  RH  094%=      5-min Rain = 0
KPAD 261315Z 15011KT 20/19 A3001 RMK A01 T02040185  RH  094%=      5-min Rain = 0
KPAD 261320Z 15011G16KT 20/19 A3001 RMK A01 T02040185  RH  094%=      5-min Rain = 0
KPAD 261325Z 16011KT 20/19 A3001 RMK A01 T02040185  RH  094%=      5-min Rain = 0
KPAD 261330Z 16012KT 20/19 A3001 RMK A01 T02040185  RH  094%=      5-min Rain = 0
KPAD 261335Z 16011KT 21/19 A3001 RMK A01 T02050185  RH  093%=      5-min Rain = 0
KPAD 261340Z 16013G18KT 21/19 A3001 RMK A01 T02050185  RH  093%=      5-min Rain = 0
KPAD 261345Z 16012KT 21/19 A3001 RMK A01 T02050185  RH  093%=      5-min Rain = 0
KPAD 261350Z 16013KT 21/19 A3001 RMK A01 T02060185  RH  093%=      5-min Rain = 0
KPAD 261355Z 16013KT 21/18 A3001 RMK A01 T02060184  RH  092%=      5-min Rain = 0
KPAD 261400Z 16012G17KT 21/19 A3001 RMK A01 T02060185  RH  092%=      5-min Rain = 0
KPAD 261405Z 16013KT 21/19 A3001 RMK A01 T02090186  RH  092%=      5-min Rain = 0
KPAD 261410Z 16012KT 21/19 A3001 RMK A01 T02100186  RH  091%=      5-min Rain = 0
KPAD 261415Z 16013G18KT 21/19 A3001 RMK A01 T02120186  RH  090%=      5-min Rain = 0
KPAD 261420Z 16014G22KT 21/19 A30 RMK A01 T02120185  RH  089%=      5-min Rain = 0
KPAD 261425Z 16015G22KT 21/18 A3001 RMK A01 T02120184  RH  089%=      5-min Rain = 0
KPAD 261430Z 16012G17KT 21/19 A3001 RMK A01 T02130185  RH  089%=      5-min Rain = 0
KPAD 261435Z 16013G19KT 21/19 A3001 RMK A01 T02140185  RH  088%=      5-min Rain = 0
KPAD 261440Z 16012KT 21/19 A3001 RMK A01 T02140185  RH  088%=      5-min Rain = 0
KPAD 261445Z 16012KT 21/19 A3001 RMK A01 T02140185  RH  088%=      5-min Rain = 0
KPAD 261450Z 16013G20KT 22/18 A3001 RMK A01 T02150184  RH  087%=      5-min Rain = 0
KPAD 261455Z 16013G18KT 22/18 A3001 RMK A01 T02160184  RH  087%=      5-min Rain = 0
KPAD 261500Z 16014G19KT 22/18 A3001 RMK A01 T02180184  RH  086%=      5-min Rain = 0
KPAD 261505Z 16013G18KT 22/18 A3001 RMK A01 T02190184  RH  085%=      5-min Rain = 0
KPAD 261510Z 16014G19KT 22/18 A3001 RMK A01 T02200183  RH  084%=      5-min Rain = 0
KPAD 261515Z 17013G18KT 22/18 A3001 RMK A01 T02200183  RH  084%=      5-min Rain = 0
KPAD 261520Z 17014KT 22/18 A3001 RMK A01 T02210183  RH  083%=      5-min Rain = 0
KPAD 261525Z 17011G18KT 22/19 A3001 RMK A01 T02220185  RH  084%=      5-min Rain = 0
KPAD 261530Z 16014G20KT 22/18 A3001 RMK A01 T02210182  RH  083%=      5-min Rain = 0
KPAD 261535Z 16013G19KT 22/18 A3001 RMK A01 T02200183  RH  083%=      5-min Rain = 0
KPAD 261540Z 17014G21KT 22/18 A3001 RMK A01 T02210183  RH  083%=      5-min Rain = 0
KPAD 261545Z 16013G19KT 22/18 A3001 RMK A01 T02210183  RH  083%=      5-min Rain = 0
KPAD 261550Z 16014G21KT 22/18 A3001 RMK A01 T02220182  RH  083%=      5-min Rain = 0
KPAD 261555Z 16014G19KT 22/18 A3001 RMK A01 T02210181  RH  082%=      5-min Rain = 0
KPAD 261600Z 17013G18KT 22/18 A3001 RMK A01 T02220183  RH  082%=      5-min Rain = 0
KPAD 261605Z 16013G19KT 22/18 A3001 RMK A01 T02240183  RH  082%=      5-min Rain = 0
KPAD 261610Z 16013G19KT 23/18 A30 RMK A01 T02250183  RH  081%=      5-min Rain = 0
KPAD 261615Z 16013G18KT 23/18 A30 RMK A01 T02270183  RH  081%=      5-min Rain = 0
KPAD 261620Z 17013G18KT 23/18 A30 RMK A01 T02280183  RH  080%=      5-min Rain = 0
KPAD 261625Z 16016G22KT 23/18 A30 RMK A01 T02280182  RH  079%=      5-min Rain = 0
KPAD 261630Z 17013G20KT 23/18 A30 RMK A01 T02290182  RH  079%=      5-min Rain = 0
KPAD 261635Z 17016G24KT 23/18 A30 RMK A01 T02290181  RH  078%=      5-min Rain = 0
KPAD 261640Z 17013G19KT 23/18 A30 RMK A01 T02290182  RH  079%=      5-min Rain = 0
KPAD 261645Z 17014KT 23/18 A2999 RMK A01 T02300182  RH  079%=      5-min Rain = 0
KPAD 261650Z 17016KT 23/18 A2999 RMK A01 T02310181  RH  077%=      5-min Rain = 0
KPAD 261655Z 17014G19KT 23/18 A2999 RMK A01 T02330184  RH  078%=      5-min Rain = 0
KPAD 261700Z 17017KT 23/18 A2999 RMK A01 T02340182  RH  076%=      5-min Rain = 0
KPAD 261705Z 17016G24KT 24/18 A2999 RMK A01 T02350181  RH  076%=      5-min Rain = 0
KPAD 261710Z 17016G21KT 24/18 A2999 RMK A01 T02350181  RH  076%=      5-min Rain = 0
KPAD 261715Z 17013G19KT 24/18 A2999 RMK A01 T02360184  RH  076%=      5-min Rain = 0
KPAD 261720Z 16016KT 24/18 A2999 RMK A01 T02390183  RH  075%=      5-min Rain = 0
KPAD 261725Z 17016G24KT 24/18 A2999 RMK A01 T02400182  RH  074%=      5-min Rain = 0
KPAD 261730Z 17016G22KT 24/18 A2999 RMK A01 T02410183  RH  074%=      5-min Rain = 0
KPAD 261735Z 18016G21KT 24/18 A2999 RMK A01 T02410183  RH  074%=      5-min Rain = 0
KPAD 261740Z 18014G21KT 24/18 A2999 RMK A01 T02400183  RH  075%=      5-min Rain = 0
KPAD 261745Z 17013G19KT 24/19 A2999 RMK A01 T02410186  RH  075%=      5-min Rain = 0
KPAD 261750Z 16015G21KT 24/18 A2999 RMK A01 T02410184  RH  074%=      5-min Rain = 0
KPAD 261755Z 17013G19KT 24/19 A2999 RMK A01 T02410185  RH  075%=      5-min Rain = 0
KPAD 261800Z 17015G20KT 24/18 A2999 RMK A01 T02410184  RH  075%=      5-min Rain = 0
KPAD 261805Z 17014G20KT 24/19 A2999 RMK A01 T02400185  RH  075%=      5-min Rain = 0
KPAD 261810Z 17014G19KT 24/19 A2999 RMK A01 T02400185  RH  076%=      5-min Rain = 0
KPAD 261815Z 17012KT 24/19 A2999 RMK A01 T02400186  RH  076%=      5-min Rain = 0
KPAD 261820Z 16012KT 24/19 A2999 RMK A01 T02390186  RH  076%=      5-min Rain = 0
KPAD 261825Z 17012G19KT 24/19 A2999 RMK A01 T02400188  RH  076%=      5-min Rain = 0
KPAD 261830Z 17013G18KT 24/19 A2999 RMK A01 T02400187  RH  076%=      5-min Rain = 0
KPAD 261835Z 17012KT 24/19 A2999 RMK A01 T02410188  RH  076%=      5-min Rain = 0
KPAD 261840Z 17014G19KT 24/19 A2999 RMK A01 T02420187  RH  075%=      5-min Rain = 0
KPAD 261845Z 17012G18KT 24/19 A2999 RMK A01 T02430188  RH  075%=      5-min Rain = 0
KPAD 261850Z 17012G17KT 24/19 A2999 RMK A01 T02440187  RH  075%=      5-min Rain = 0
KPAD 261855Z 17012G17KT 24/19 A2999 RMK A01 T02440188  RH  075%=      5-min Rain = 0
KPAD 261900Z 16011KT 25/19 A2998 RMK A01 T02450189  RH  075%=      5-min Rain = 0
KPAD 261905Z 16014KT 25/19 A2998 RMK A01 T02450187  RH  074%=      5-min Rain = 0
KPAD 261910Z 16013G18KT 25/19 A2998 RMK A01 T02450188  RH  075%=      5-min Rain = 0
KPAD 261915Z 16013KT 25/19 A2998 RMK A01 T02470189  RH  074%=      5-min Rain = 0
KPAD 261920Z 16012G17KT 25/19 A2998 RMK A01 T02460188  RH  074%=      5-min Rain = 0
KPAD 261925Z 16012G17KT 24/19 A2998 RMK A01 T02440188  RH  075%=      5-min Rain = 0
KPAD 261930Z 16012KT 24/19 A2998 RMK A01 T02440188  RH  075%=      5-min Rain = 0
KPAD 261935Z 16011KT 24/19 A2997 RMK A01 T02430189  RH  076%=      5-min Rain = 0
KPAD 261940Z 17010KT 24/19 A2998 RMK A01 T02430190  RH  076%=      5-min Rain = 0
KPAD 261945Z 16011G16KT 25/19 A2997 RMK A01 T02450192  RH  076%=      5-min Rain = 0
KPAD 261950Z 16011G16KT 25/19 A2997 RMK A01 T02450190  RH  076%=      5-min Rain = 0
KPAD 261955Z 16012KT 25/19 A2997 RMK A01 T02450192  RH  076%=      5-min Rain = 0
KPAD 262000Z 17011G17KT 25/19 A2997 RMK A01 T02480193  RH  076%=      5-min Rain = 0
KPAD 262005Z 17012KT 25/19 A2997 RMK A01 T02490193  RH  075%=      5-min Rain = 0
KPAD 262010Z 17012G17KT 25/19 A2998 RMK A01 T02490193  RH  075%=      5-min Rain = 0
KPAD 262015Z 17012KT 25/19 A2998 RMK A01 T02500193  RH  075%=      5-min Rain = 0
KPAD 262020Z 17012KT 25/19 A2998 RMK A01 T02500193  RH  075%=      5-min Rain = 0
KPAD 262025Z 18011KT 25/19 A2998 RMK A01 T02480193  RH  075%=      5-min Rain = 0
KPAD 262030Z 18011G16KT 25/19 A2998 RMK A01 T02460191  RH  076%=      5-min Rain = 0
KPAD 262035Z 18011KT 25/19 A2998 RMK A01 T02450192  RH  076%=      5-min Rain = 0
KPAD 262040Z 18009G14KT 24/19 A2997 RMK A01 T02440192  RH  077%=      5-min Rain = 0
KPAD 262045Z 19010G15KT 25/19 A2997 RMK A01 T02450193  RH  077%=      5-min Rain = 0
KPAD 262050Z 19009KT 25/19 A2997 RMK A01 T02450193  RH  077%=      5-min Rain = 0
KPAD 262055Z 19008KT 24/19 A2997 RMK A01 T02440193  RH  077%=      5-min Rain = 0
KPAD 262100Z 19008KT 24/19 A2997 RMK A01 T02430194  RH  079%=      5-min Rain = 0
KPAD 262105Z 19009KT 24/20 A2996 RMK A01 T02430195  RH  079%=      5-min Rain = 0
KPAD 262110Z 19008KT 24/20 A2996 RMK A01 T02440195  RH  078%=      5-min Rain = 0
KPAD 262115Z 18007KT 24/20 A2996 RMK A01 T02440195  RH  079%=      5-min Rain = 0
KPAD 262120Z 18007KT 25/20 A2996 RMK A01 T02450196  RH  079%=      5-min Rain = 0
KPAD 262125Z 18009KT 25/20 A2996 RMK A01 T02450195  RH  078%=      5-min Rain = 0
KPAD 262130Z 18009KT 24/20 A2996 RMK A01 T02440197  RH  079%=      5-min Rain = 0
KPAD 262135Z 18011G16KT 24/20 A2996 RMK A01 T02430196  RH  079%=      5-min Rain = 0
KPAD 262140Z 19011KT 24/20 A2995 RMK A01 T02390195  RH  081%=      5-min Rain = 0
KPAD 262145Z 19009KT 24/20 A2995 RMK A01 T02350198  RH  084%=      5-min Rain = 0
KPAD 262150Z 18011KT 24/20 A2995 RMK A01 T02360200  RH  085%=      5-min Rain = 0
KPAD 262155Z 18010KT 24/20 A2995 RMK A01 T02370199  RH  084%=      5-min Rain = 0
KPAD 262200Z 19010G15KT 24/20 A2995 RMK A01 T02370199  RH  084%=      5-min Rain = 0
KPAD 262205Z 18009KT 24/20 A2994 RMK A01 T02360200  RH  085%=      5-min Rain = 0
KPAD 262210Z 19008KT 24/20 A2994 RMK A01 T02370200  RH  085%=      5-min Rain = 0
KPAD 262215Z 18008KT 24/20 A2994 RMK A01 T02370200  RH  084%=      5-min Rain = 0
KPAD 262220Z 18007KT 24/20 A2994 RMK A01 T02380200  RH  084%=      5-min Rain = 0
KPAD 262225Z 17006KT 24/20 A2993 RMK A01 T02390202  RH  084%=      5-min Rain = 0
KPAD 262230Z 18006KT 24/20 A2993 RMK A01 T02400202  RH  084%=      5-min Rain = 0
KPAD 262235Z 16007KT 24/20 A2993 RMK A01 T02410202  RH  084%=      5-min Rain = 0
KPAD 262240Z 17013G20KT 24/20 A2993 RMK A01 T02430199  RH  081%=      5-min Rain = 0
KPAD 262245Z 17013G18KT 25/20 A2992 RMK A01 T02450197  RH  079%=      5-min Rain = 0
KPAD 262250Z 16013KT 25/20 A2992 RMK A01 T02470198  RH  078%=      5-min Rain = 0
KPAD 262255Z 16015G22KT 25/20 A2991 RMK A01 T02490197  RH  077%=      5-min Rain = 0
KPAD 262300Z 16014G19KT 25/20 A2991 RMK A01 T02510197  RH  076%=      5-min Rain = 0
KPAD 262305Z 16015G20KT 25/20 A2991 RMK A01 T02510197  RH  076%=      5-min Rain = 0
KPAD 262310Z 16015G20KT 25/20 A299 RMK A01 T02510196  RH  076%=      5-min Rain = 0
KPAD 262315Z 16014G19KT 25/20 A299 RMK A01 T02510197  RH  076%=      5-min Rain = 0
KPAD 262320Z 16013G18KT 25/20 A299 RMK A01 T02500197  RH  077%=      5-min Rain = 0
KPAD 262325Z 16011G16KT 25/20 A299 RMK A01 T02500198  RH  077%=      5-min Rain = 0
KPAD 262330Z 16014G22KT 25/20 A299 RMK A01 T02500197  RH  077%=      5-min Rain = 0
KPAD 262335Z 16014G20KT 25/20 A2989 RMK A01 T02500195  RH  076%=      5-min Rain = 0
KPAD 262340Z 16013G18KT 25/20 A2988 RMK A01 T02490195  RH  076%=      5-min Rain = 0
KPAD 262345Z 16012KT 25/20 A2988 RMK A01 T02480195  RH  076%=      5-min Rain = 0
KPAD 262350Z 16010KT 25/20 A2988 RMK A01 T02480195  RH  077%=      5-min Rain = 0
KPAD 262355Z 16012KT 25/20 A2988 RMK A01 T02470195  RH  077%=      5-min Rain = 0
KPAD 270000Z 16011KT 25/20 A2988 RMK A01 T02470195  RH  077%=      5-min Rain = 0
KPAD 270005Z 15010G15KT 25/20 A2987 RMK A01 T02470196  RH  078%=      5-min Rain = 0
KPAD 270010Z 16009G14KT 25/20 A2987 RMK A01 T02470196  RH  078%=      5-min Rain = 0
KPAD 270015Z 15011KT 25/20 A2987 RMK A01 T02470196  RH  077%=      5-min Rain = 0
KPAD 270020Z 15010KT 25/20 A2987 RMK A01 T02480196  RH  077%=      5-min Rain = 0
KPAD 270025Z 15011KT 25/20 A2987 RMK A01 T02480195  RH  077%=      5-min Rain = 0
KPAD 270030Z 15012KT 25/20 A2987 RMK A01 T02480195  RH  077%=      5-min Rain = 0
KPAD 270035Z 15011G16KT 25/20 A2987 RMK A01 T02470195  RH  077%=      5-min Rain = 0
KPAD 270040Z 15011KT 25/20 A2986 RMK A01 T02460195  RH  078%=      5-min Rain = 0
KPAD 270045Z 14011KT 25/20 A2986 RMK A01 T02460195  RH  078%=      5-min Rain = 0
KPAD 270050Z 14011KT 25/20 A2986 RMK A01 T02460195  RH  078%=      5-min Rain = 0
KPAD 270055Z 14012KT 25/20 A2986 RMK A01 T02460195  RH  077%=      5-min Rain = 0
KPAD 270100Z 14013G18KT 25/19 A2985 RMK A01 T02470194  RH  077%=      5-min Rain = 0
KPAD 270105Z 14014KT 25/19 A2984 RMK A01 T02480194  RH  076%=      5-min Rain = 0
KPAD 270110Z 14015G20KT 25/19 A2984 RMK A01 T02480194  RH  076%=      5-min Rain = 0
KPAD 270115Z 14014KT 25/19 A2983 RMK A01 T02480194  RH  076%=      5-min Rain = 0
KPAD 270120Z 14016G21KT 25/19 A2982 RMK A01 T02470193  RH  076%=      5-min Rain = 0
KPAD 270125Z 14016G21KT 25/19 A2981 RMK A01 T02460192  RH  076%=      5-min Rain = 0
KPAD 270130Z 14016KT 25/19 A2981 RMK A01 T02460189  RH  075%=      5-min Rain = 0
KPAD 270135Z 15014G19KT 25/19 A2981 RMK A01 T02450188  RH  075%=      5-min Rain = 0
KPAD 270140Z 15013G18KT 24/19 A2982 RMK A01 T02440187  RH  074%=      5-min Rain = 0
KPAD 270145Z 16012G17KT 24/19 A2983 RMK A01 T02430186  RH  074%=      5-min Rain = 0
KPAD 270150Z 16012G17KT 24/19 A2983 RMK A01 T02430185  RH  074%=      5-min Rain = 0
KPAD 270155Z 16013G18KT 24/18 A2984 RMK A01 T02420184  RH  074%=      5-min Rain = 0
KPAD 270200Z 16012KT 24/18 A2983 RMK A01 T02400184  RH  074%=      5-min Rain = 0
KPAD 270205Z 16012KT 24/18 A2984 RMK A01 T02400183  RH  074%=      5-min Rain = 0
KPAD 270210Z 16012KT 24/18 A2984 RMK A01 T02390183  RH  075%=      5-min Rain = 0
KPAD 270215Z 17013KT 24/18 A2984 RMK A01 T02380183  RH  075%=      5-min Rain = 0
KPAD 270220Z 17012G17KT 24/18 A2984 RMK A01 T02360183  RH  076%=      5-min Rain = 0
KPAD 270225Z 17012KT 24/18 A2984 RMK A01 T02350183  RH  077%=      5-min Rain = 0
KPAD 270230Z 17013KT 23/18 A2984 RMK A01 T02340183  RH  077%=      5-min Rain = 0
KPAD 270235Z 17013KT 23/18 A2985 RMK A01 T02340183  RH  077%=      5-min Rain = 0
KPAD 270240Z 17012KT 23/18 A2984 RMK A01 T02330183  RH  078%=      5-min Rain = 0
KPAD 270245Z 17012KT 23/18 A2985 RMK A01 T02320183  RH  078%=      5-min Rain = 0
KPAD 270250Z 17011G16KT 23/18 A2985 RMK A01 T02310183  RH  079%=      5-min Rain = 0
KPAD 270255Z 17012KT 23/18 A2985 RMK A01 T02300183  RH  079%=      5-min Rain = 0
KPAD 270300Z 17011G16KT 23/18 A2985 RMK A01 T02290183  RH  080%=      5-min Rain = 0
KPAD 270305Z 17011KT 23/18 A2986 RMK A01 T02270183  RH  080%=      5-min Rain = 0
KPAD 270310Z 17010KT 23/18 A2986 RMK A01 T02260183  RH  081%=      5-min Rain = 0
KPAD 270315Z 18009KT 22/18 A2986 RMK A01 T02240183  RH  082%=      5-min Rain = 0
KPAD 270320Z 18008KT 22/18 A2987 RMK A01 T02230183  RH  082%=      5-min Rain = 0
KPAD 270325Z 18008KT 22/18 A2987 RMK A01 T02220182  RH  083%=      5-min Rain = 0
KPAD 270330Z 18007KT 22/18 A2988 RMK A01 T02200182  RH  083%=      5-min Rain = 0
KPAD 270335Z 17008KT 22/18 A2987 RMK A01 T02180182  RH  084%=      5-min Rain = 0
KPAD 270340Z 16009KT 22/18 A2986 RMK A01 T02170182  RH  085%=      5-min Rain = 0
KPAD 270345Z 16010KT 22/18 A2986 RMK A01 T02160182  RH  085%=      5-min Rain = 0
KPAD 270350Z 16009KT 22/18 A2986 RMK A01 T02160182  RH  086%=      5-min Rain = 0
KPAD 270355Z 16009KT 22/18 A2986 RMK A01 T02150182  RH  086%=      5-min Rain = 0
KPAD 270400Z 16009KT 22/18 A2986 RMK A01 T02150182  RH  086%=      5-min Rain = 0
KPAD 270405Z 16009KT 22/18 A2986 RMK A01 T02150182  RH  086%=      5-min Rain = 0
KPAD 270410Z 16008KT 22/18 A2986 RMK A01 T02150182  RH  086%=      5-min Rain = 0
KPAD 270415Z 16007KT 22/18 A2986 RMK A01 T02150182  RH  086%=      5-min Rain = 0
KPAD 270420Z 16007KT 21/18 A2986 RMK A01 T02140182  RH  086%=      5-min Rain = 0
KPAD 270425Z 15007KT 21/18 A2986 RMK A01 T02140182  RH  087%=      5-min Rain = 0
KPAD 270430Z 16008KT 21/18 A2987 RMK A01 T02140183  RH  087%=      5-min Rain = 0
KPAD 270435Z 16009KT 22/18 A2986 RMK A01 T02150183  RH  086%=      5-min Rain = 0
KPAD 270440Z 16009KT 22/18 A2986 RMK A01 T02150183  RH  086%=      5-min Rain = 0
KPAD 270445Z 15009KT 22/18 A2986 RMK A01 T02170183  RH  086%=      5-min Rain = 0
KPAD 270450Z 15009KT 22/18 A2986 RMK A01 T02170183  RH  085%=      5-min Rain = 0
KPAD 270455Z 15009KT 22/18 A2986 RMK A01 T02170183  RH  085%=      5-min Rain = 0

Page generated in 0.009 seconds.